Aeroporto :
LOGIN :

Iscrizione | Disclaimer

   EN    FR    IT 

 










Sommario :    VFR   VFR Marginale   IFR   IFR Intensivo   IFR Molto Intensivo
Visibilità : 
Base nubi : 
>= 8 km
>= 3000ft
5 / 8 km
1000 / 3000 ft
1500m / 5 km
500 / 1000 ft
800 / 1500m
200 / 500 ft
< 800m
< 200 ft
Simboli :   Temporali  Nebbia  Neve Forte  Precipitazioni Forti  Vento > 20 kt
SIGMETs :   Varie  Temporali  Ghiacco  Turbolenza  Onda orograficha  Ceneri Vulcaniche






- Altitudine del aeroporto : 3 ft
- Codice IATA : LWR


EHLW - Leuuwarden Air Base

ULTIMO METAR :
  • 080355Z AUTO 18011KT 130V210 9999 FEW009 OVC010 05/04 Q0990 GRN

METARs OBSOLETI :
  • 080326Z AUTO 17013KT 130V200 9999 FEW006 SCT007 BKN008 04/04 Q0990 GRN
  • 080255Z AUTO 17013KT 120V210 9999 OVC006 04/03 Q0990 YLO
  • 080245Z AUTO 17016KT 130V220 9999 BKN006 OVC008 04/03 Q0990 YLO
  • 080225Z AUTO 15015KT 120V200 9999 SCT007 BKN008 BKN010 04/03 Q0990 GRN
  • 080214Z AUTO 15014G24KT 110V180 9999 -DZ FEW007 SCT008 BKN009 04/03 Q0990 GRN
  • 080156Z AUTO 16014G24KT 110V170 9999 SCT007 SCT009 BKN010 04/03 Q0990 GRN
  • 080148Z AUTO 15015G27KT 110V180 9999 FEW007 SCT008 BKN010 04/03 Q0990 GRN
  • 080143Z AUTO 15016G27KT 110V180 9999 -DZ FEW007 SCT008 BKN010 04/03 Q0990 GRN
  • 080129Z AUTO 15017KT 110V190 6000 DZRA FEW007 SCT008 BKN009 FEW015CB 03/03 Q0990 GRN
  • 080125Z AUTO 15015G26KT 100V190 9999 -RA FEW007 SCT008 BKN011 FEW015CB 03/03 Q0990 GRN
  • 080113Z AUTO 15016KT 120V190 6000 -SHRA FEW007 SCT010 BKN012 FEW015CB 03/02 Q0991 GRN

TAF TAF EHLW
Valido dal 08 a 02 ore il 08 a 14 ore UTC


080119Z 0802/0814 15014KT 9999 SCT025 BKN035
TEMPO 0802/0804 4000 RA SCT008 BKN015
PROB30
TEMPO 0808/0814 FEW015 SCT018



MetMap, La meteo Aeronautica in un colpo d'occhio ! - Copyright ORBIFLY Dicembre 2007 - Disclaimer

ORBIFLY MET'MAP TEAM :

Programmazione e sviluppo : Alexandra Zaïnal
Concezione : Baudouin d'Aumeries
Aiuto per la programmazione : Marc-Olivier Méhu
Supporto tecnico e logistico : Manuel Goepfert
Aiuto per la traduzione : Arnaldo La Scala

Contatto : metmap@orbifly.com




FONTI E CREDITI :

   NOAA